Time;durP1;ratioP1;P1;durP2;ratioP2;P2;SDS_P1;SDS_P2;PMS_P1;PMS_P2;Temp;Humidity;BMP_temperature;BMP_pressure;BME280_temperature;BME280_humidity;BME280_pressure;Samples;Min_cycle;Max_cycle;Signal;HPM_P1;HPM_P2
2024/01/18 00:01:02;;;;;;;;;;;17.20;60.50;;;;;;5037510;28;1894;-68
2024/01/18 00:03:27;;;;;;;;;;;17.20;60.60;;;;;;5043754;28;1132;-67
2024/01/18 00:05:53;;;;;;;;;;;17.20;60.50;;;;;;5041177;28;1382;-67
2024/01/18 00:08:18;;;;;;;;;;;17.20;60.60;;;;;;5042440;28;2158;-67
2024/01/18 00:10:44;;;;;;;;;;;17.20;60.60;;;;;;5042087;28;1651;-68
2024/01/18 00:13:10;;;;;;;;;;;17.20;60.60;;;;;;5042072;28;1381;-68
2024/01/18 00:15:35;;;;;;;;;;;17.20;60.60;;;;;;5043396;28;1370;-67
2024/01/18 00:18:02;;;;;;;;;;;17.20;60.70;;;;;;5041953;28;1452;-67
2024/01/18 00:20:27;;;;;;;;;;;17.20;60.70;;;;;;5041953;28;1466;-67
2024/01/18 00:22:53;;;;;;;;;;;17.20;60.70;;;;;;5041022;28;1902;-68
2024/01/18 00:25:19;;;;;;;;;;;17.20;60.70;;;;;;5043103;28;1834;-67
2024/01/18 00:27:44;;;;;;;;;;;17.20;60.70;;;;;;5040343;28;1313;-68
2024/01/18 00:30:10;;;;;;;;;;;17.20;61.50;;;;;;5038694;28;1424;-67
2024/01/18 00:32:36;;;;;;;;;;;17.20;60.70;;;;;;5041923;28;1156;-67
2024/01/18 00:35:01;;;;;;;;;;;17.20;60.70;;;;;;5043035;28;1307;-67
2024/01/18 00:37:27;;;;;;;;;;;17.20;60.70;;;;;;5048269;28;1284;-67
2024/01/18 00:39:52;;;;;;;;;;;17.20;60.70;;;;;;5074545;28;1464;-67
2024/01/18 00:42:18;;;;;;;;;;;17.20;60.80;;;;;;5039104;28;1955;-68
2024/01/18 00:44:43;;;;;;;;;;;17.20;60.70;;;;;;5041871;28;1480;-67
2024/01/18 00:47:09;;;;;;;;;;;17.20;60.80;;;;;;5042267;28;1441;-68
2024/01/18 00:49:34;;;;;;;;;;;17.20;60.80;;;;;;5040784;28;1366;-67
2024/01/18 00:52:04;;;;;;;;;;;17.20;60.80;;;;;;5040765;28;1663;-67
2024/01/18 00:54:29;;;;;;;;;;;17.20;60.80;;;;;;5043220;28;1461;-68
2024/01/18 00:56:54;;;;;;;;;;;17.20;60.80;;;;;;5040165;28;1369;-68
2024/01/18 00:59:20;;;;;;;;;;;17.20;60.80;;;;;;5041798;28;1292;-67
2024/01/18 01:01:46;;;;;;;;;;;17.20;60.80;;;;;;5038465;28;1957;-67
2024/01/18 01:04:11;;;;;;;;;;;17.20;60.80;;;;;;5040468;28;1539;-67
2024/01/18 01:06:37;;;;;;;;;;;17.20;60.80;;;;;;5041282;28;1323;-67
2024/01/18 01:09:03;;;;;;;;;;;17.10;60.70;;;;;;5042622;28;1461;-66
2024/01/18 01:11:29;;;;;;;;;;;17.20;60.80;;;;;;5041640;28;1391;-66
2024/01/18 01:13:55;;;;;;;;;;;17.20;60.80;;;;;;5071596;28;1624;-66
2024/01/18 01:16:20;;;;;;;;;;;17.20;60.80;;;;;;5040588;28;1500;-67
2024/01/18 01:18:46;;;;;;;;;;;17.10;60.80;;;;;;5041754;28;1253;-68
2024/01/18 01:21:11;;;;;;;;;;;17.20;60.90;;;;;;5040228;28;1902;-66
2024/01/18 01:23:41;;;;;;;;;;;17.20;60.90;;;;;;5040054;28;1240;-66
2024/01/18 01:26:08;;;;;;;;;;;17.10;60.80;;;;;;5040063;28;1447;-67
2024/01/18 01:28:34;;;;;;;;;;;17.20;60.80;;;;;;5042330;28;1468;-67
2024/01/18 01:30:59;;;;;;;;;;;17.10;60.80;;;;;;5040602;28;1499;-66
2024/01/18 01:33:25;;;;;;;;;;;17.10;60.80;;;;;;5043481;28;1306;-66
2024/01/18 01:35:50;;;;;;;;;;;17.10;60.80;;;;;;5038330;28;1498;-67
2024/01/18 01:38:15;;;;;;;;;;;17.10;60.80;;;;;;5039008;28;1665;-66
2024/01/18 01:40:41;;;;;;;;;;;17.20;60.90;;;;;;5041083;28;1773;-66
2024/01/18 01:43:07;;;;;;;;;;;17.10;60.80;;;;;;5039887;28;1898;-67
2024/01/18 01:45:32;;;;;;;;;;;17.10;60.90;;;;;;5039069;28;1464;-66
2024/01/18 01:47:58;;;;;;;;;;;17.10;60.90;;;;;;5037929;28;1782;-66
2024/01/18 01:50:23;;;;;;;;;;;17.10;60.80;;;;;;5040424;28;1543;-67
2024/01/18 01:52:49;;;;;;;;;;;17.10;60.80;;;;;;5037830;28;1521;-68
2024/01/18 01:55:15;;;;;;;;;;;17.10;61.60;;;;;;5040671;28;1502;-66
2024/01/18 01:57:42;;;;;;;;;;;17.10;60.90;;;;;;5047649;28;1444;-67
2024/01/18 02:00:07;;;;;;;;;;;17.10;60.90;;;;;;5069784;28;1297;-66
2024/01/18 02:02:33;;;;;;;;;;;17.10;60.90;;;;;;5023560;28;1953;-67
2024/01/18 02:04:58;;;;;;;;;;;17.10;60.90;;;;;;5047280;28;1469;-65
2024/01/18 02:07:24;;;;;;;;;;;17.10;60.90;;;;;;5039584;28;1563;-67
2024/01/18 02:09:50;;;;;;;;;;;17.10;60.90;;;;;;5046433;28;1534;-66
2024/01/18 02:12:15;;;;;;;;;;;17.10;60.90;;;;;;5072326;28;1446;-67
2024/01/18 02:14:41;;;;;;;;;;;17.10;60.90;;;;;;5070749;28;1520;-66
2024/01/18 02:17:06;;;;;;;;;;;17.10;60.90;;;;;;5042492;28;1247;-66
2024/01/18 02:19:32;;;;;;;;;;;17.10;60.90;;;;;;5037541;28;1213;-66
2024/01/18 02:21:58;;;;;;;;;;;17.10;60.90;;;;;;5037683;28;1934;-68
2024/01/18 02:24:31;;;;;;;;;;;17.10;60.90;;;;;;5039410;28;1663;-67
2024/01/18 02:26:57;;;;;;;;;;;17.10;60.90;;;;;;5039192;28;1366;-67
2024/01/18 02:29:22;;;;;;;;;;;17.10;60.90;;;;;;5041291;28;1386;-67
2024/01/18 02:31:48;;;;;;;;;;;17.10;61.00;;;;;;5040144;28;1522;-67
2024/01/18 02:34:14;;;;;;;;;;;17.10;60.90;;;;;;5036653;28;1600;-70
2024/01/18 02:36:39;;;;;;;;;;;17.10;61.00;;;;;;5040130;28;1145;-69
2024/01/18 02:39:05;;;;;;;;;;;17.10;61.00;;;;;;5045814;28;1331;-66
2024/01/18 02:41:32;;;;;;;;;;;17.10;61.00;;;;;;5068111;28;1906;-68
2024/01/18 02:43:57;;;;;;;;;;;17.10;61.00;;;;;;5043366;28;1362;-66
2024/01/18 02:46:23;;;;;;;;;;;17.10;61.00;;;;;;5038185;28;1287;-66
2024/01/18 02:48:48;;;;;;;;;;;17.10;61.00;;;;;;5071855;28;1386;-67
2024/01/18 02:51:14;;;;;;;;;;;17.10;61.00;;;;;;5043964;28;1351;-66
2024/01/18 02:53:39;;;;;;;;;;;17.10;61.00;;;;;;5038511;28;1449;-67
2024/01/18 02:56:05;;;;;;;;;;;17.10;61.00;;;;;;5040842;28;1473;-66
2024/01/18 02:58:30;;;;;;;;;;;17.10;61.00;;;;;;5043055;28;1295;-66
2024/01/18 03:00:56;;;;;;;;;;;17.10;61.00;;;;;;5039867;28;1439;-66
2024/01/18 03:03:22;;;;;;;;;;;17.10;61.00;;;;;;5042110;28;1883;-66
2024/01/18 03:05:48;;;;;;;;;;;17.10;61.10;;;;;;5070292;28;1400;-67
2024/01/18 03:08:14;;;;;;;;;;;17.10;61.00;;;;;;5039125;28;1564;-67
2024/01/18 03:10:39;;;;;;;;;;;17.10;61.00;;;;;;5037957;28;1465;-67
2024/01/18 03:13:05;;;;;;;;;;;17.10;61.10;;;;;;5039150;28;1355;-67
2024/01/18 03:15:30;;;;;;;;;;;17.10;61.00;;;;;;5039346;28;1791;-67
2024/01/18 03:17:56;;;;;;;;;;;17.10;61.00;;;;;;5039151;28;1192;-67
2024/01/18 03:20:21;;;;;;;;;;;17.10;61.10;;;;;;5041279;28;1194;-67
2024/01/18 03:22:47;;;;;;;;;;;17.10;61.00;;;;;;5039530;28;1965;-68
2024/01/18 03:25:12;;;;;;;;;;;17.10;61.10;;;;;;5038996;28;1372;-68
2024/01/18 03:27:38;;;;;;;;;;;17.10;61.10;;;;;;5043267;28;1336;-68
2024/01/18 03:30:03;;;;;;;;;;;17.10;61.10;;;;;;5040306;28;1387;-68
2024/01/18 03:32:29;;;;;;;;;;;17.10;61.10;;;;;;5038965;28;1635;-68
2024/01/18 03:34:54;;;;;;;;;;;17.10;61.10;;;;;;5035870;28;1456;-68
2024/01/18 03:37:20;;;;;;;;;;;17.10;61.10;;;;;;5040113;28;1858;-68
2024/01/18 03:39:45;;;;;;;;;;;17.00;61.00;;;;;;5035704;28;1471;-68
2024/01/18 03:42:11;;;;;;;;;;;17.00;61.00;;;;;;5040323;28;1897;-68
2024/01/18 03:44:36;;;;;;;;;;;17.00;61.00;;;;;;5036796;28;1373;-67
2024/01/18 03:47:02;;;;;;;;;;;17.00;61.00;;;;;;5039638;28;1490;-68
2024/01/18 03:49:27;;;;;;;;;;;17.00;61.10;;;;;;5036201;28;1651;-68
2024/01/18 03:51:53;;;;;;;;;;;17.00;61.00;;;;;;5040180;28;1635;-67
2024/01/18 03:54:18;;;;;;;;;;;17.00;61.10;;;;;;5040180;28;1633;-68
2024/01/18 03:56:44;;;;;;;;;;;17.00;61.10;;;;;;5036427;28;1514;-68
2024/01/18 03:59:13;;;;;;;;;;;17.00;61.10;;;;;;5047645;28;1300;-67
2024/01/18 04:01:39;;;;;;;;;;;17.00;61.10;;;;;;5036952;28;1955;-68
2024/01/18 04:04:04;;;;;;;;;;;17.00;61.10;;;;;;5040525;28;1505;-68
2024/01/18 04:06:29;;;;;;;;;;;17.00;61.10;;;;;;5037371;28;1345;-68
2024/01/18 04:08:55;;;;;;;;;;;17.00;61.10;;;;;;5037390;28;1514;-68
2024/01/18 04:11:20;;;;;;;;;;;17.00;61.10;;;;;;5036881;28;1439;-68
2024/01/18 04:13:47;;;;;;;;;;;17.00;61.10;;;;;;5039023;28;1615;-67
2024/01/18 04:16:12;;;;;;;;;;;17.00;61.10;;;;;;5069759;28;1618;-67
2024/01/18 04:18:38;;;;;;;;;;;17.00;61.10;;;;;;5054854;28;1402;-67
2024/01/18 04:21:03;;;;;;;;;;;17.00;61.10;;;;;;5037899;28;1438;-67
2024/01/18 04:23:29;;;;;;;;;;;17.00;61.10;;;;;;5040390;28;1911;-68
2024/01/18 04:25:54;;;;;;;;;;;17.00;61.10;;;;;;5039916;28;1436;-68
2024/01/18 04:28:20;;;;;;;;;;;17.00;61.10;;;;;;5039031;28;1713;-68
2024/01/18 04:30:45;;;;;;;;;;;17.00;61.10;;;;;;5044069;28;1436;-68
2024/01/18 04:33:11;;;;;;;;;;;17.00;61.10;;;;;;5037400;28;1522;-68
2024/01/18 04:35:36;;;;;;;;;;;17.00;61.10;;;;;;5037808;28;1375;-68
2024/01/18 04:38:02;;;;;;;;;;;17.00;61.20;;;;;;5039085;28;1538;-68
2024/01/18 04:40:28;;;;;;;;;;;17.00;61.20;;;;;;5038358;28;1826;-68
2024/01/18 04:42:53;;;;;;;;;;;17.00;61.10;;;;;;5037003;28;1998;-68
2024/01/18 04:45:19;;;;;;;;;;;17.00;61.20;;;;;;5037998;28;1507;-68
2024/01/18 04:47:45;;;;;;;;;;;17.00;61.90;;;;;;5043968;28;1388;-68
2024/01/18 04:50:10;;;;;;;;;;;17.00;61.20;;;;;;5041704;28;1728;-68
2024/01/18 04:52:36;;;;;;;;;;;17.00;61.20;;;;;;5039641;28;1499;-68
2024/01/18 04:55:04;;;;;;;;;;;17.00;61.20;;;;;;5041405;28;1449;-68
2024/01/18 04:57:32;;;;;;;;;;;17.00;61.20;;;;;;5045000;28;1661;-69
2024/01/18 04:59:58;;;;;;;;;;;17.00;61.20;;;;;;5040220;28;1474;-68
2024/01/18 05:02:23;;;;;;;;;;;17.00;61.20;;;;;;5040448;28;1969;-68
2024/01/18 05:04:49;;;;;;;;;;;17.00;61.20;;;;;;5041363;28;1555;-68
2024/01/18 05:07:17;;;;;;;;;;;17.00;61.20;;;;;;5039789;28;1454;-68
2024/01/18 05:09:43;;;;;;;;;;;17.00;61.20;;;;;;5039929;28;1586;-67
2024/01/18 05:12:09;;;;;;;;;;;17.00;61.20;;;;;;5040150;28;1135;-68
2024/01/18 05:14:34;;;;;;;;;;;17.00;61.10;;;;;;5039137;28;1367;-68
2024/01/18 05:17:10;;;;;;;;;;;17.00;61.00;;;;;;5040661;28;1345;-68
2024/01/18 05:19:36;;;;;;;;;;;17.10;61.00;;;;;;5041282;28;1412;-67
2024/01/18 05:22:02;;;;;;;;;;;17.10;60.90;;;;;;5070167;28;1914;-67
2024/01/18 05:24:27;;;;;;;;;;;17.10;60.80;;;;;;5040833;28;1385;-68
2024/01/18 05:26:53;;;;;;;;;;;17.20;60.70;;;;;;5044142;28;1401;-68
2024/01/18 05:29:19;;;;;;;;;;;17.20;60.50;;;;;;5041064;28;1511;-67
2024/01/18 05:31:45;;;;;;;;;;;17.20;60.40;;;;;;5038849;28;1470;-67
2024/01/18 05:34:11;;;;;;;;;;;17.30;60.30;;;;;;5072800;28;1517;-68
2024/01/18 05:36:36;;;;;;;;;;;17.30;60.20;;;;;;5043777;28;1227;-67
2024/01/18 05:39:03;;;;;;;;;;;17.30;60.10;;;;;;5040280;28;1413;-68
2024/01/18 05:41:28;;;;;;;;;;;17.40;60.00;;;;;;5040848;28;1898;-67
2024/01/18 05:43:53;;;;;;;;;;;17.40;59.90;;;;;;5042622;28;1338;-67
2024/01/18 05:46:19;;;;;;;;;;;17.40;59.80;;;;;;5040624;28;1219;-66
2024/01/18 05:48:44;;;;;;;;;;;17.40;59.80;;;;;;5039694;28;1467;-66
2024/01/18 05:51:10;;;;;;;;;;;17.40;59.70;;;;;;5040930;28;871;-66
2024/01/18 05:53:35;;;;;;;;;;;17.50;59.70;;;;;;5042039;28;1401;-68
2024/01/18 05:56:01;;;;;;;;;;;17.50;59.70;;;;;;5040460;28;1757;-68
2024/01/18 05:58:29;;;;;;;;;;;17.50;59.60;;;;;;5039847;28;1380;-68
2024/01/18 06:00:55;;;;;;;;;;;17.50;59.60;;;;;;5040362;28;1411;-67
2024/01/18 06:03:20;;;;;;;;;;;17.50;59.50;;;;;;5042633;28;1960;-67
2024/01/18 06:05:45;;;;;;;;;;;17.50;59.50;;;;;;5040290;28;1378;-67
2024/01/18 06:08:11;;;;;;;;;;;17.50;59.50;;;;;;5041576;28;1522;-67
2024/01/18 06:10:36;;;;;;;;;;;17.50;59.40;;;;;;5040260;28;1269;-67
2024/01/18 06:13:02;;;;;;;;;;;17.60;59.40;;;;;;5041951;28;1573;-67
2024/01/18 06:15:27;;;;;;;;;;;17.50;59.30;;;;;;5037905;28;1475;-67
2024/01/18 06:17:53;;;;;;;;;;;17.60;59.40;;;;;;5038252;28;1497;-67
2024/01/18 06:20:18;;;;;;;;;;;17.60;59.40;;;;;;5072101;28;2088;-67
2024/01/18 06:22:44;;;;;;;;;;;17.60;59.30;;;;;;5038534;28;1971;-67
2024/01/18 06:25:09;;;;;;;;;;;17.60;59.30;;;;;;5039818;28;1355;-66
2024/01/18 06:27:35;;;;;;;;;;;17.60;59.30;;;;;;5040296;28;1276;-66
2024/01/18 06:30:01;;;;;;;;;;;17.60;59.30;;;;;;5041539;28;1482;-66
2024/01/18 06:32:26;;;;;;;;;;;17.60;59.30;;;;;;5043061;28;1570;-66
2024/01/18 06:34:52;;;;;;;;;;;17.60;59.30;;;;;;5038458;28;1641;-66
2024/01/18 06:37:17;;;;;;;;;;;17.60;59.30;;;;;;5039725;28;1633;-66
2024/01/18 06:39:42;;;;;;;;;;;17.60;59.30;;;;;;5038454;28;1234;-66
2024/01/18 06:42:08;;;;;;;;;;;17.60;59.30;;;;;;5070189;28;1973;-67
2024/01/18 06:44:34;;;;;;;;;;;17.60;59.30;;;;;;5039147;28;1386;-68
2024/01/18 06:47:00;;;;;;;;;;;17.60;59.30;;;;;;5043399;28;1468;-68
2024/01/18 06:49:26;;;;;;;;;;;17.60;59.30;;;;;;5042986;28;1425;-68
2024/01/18 06:51:51;;;;;;;;;;;17.60;59.30;;;;;;5070392;28;1535;-68
2024/01/18 06:54:21;;;;;;;;;;;17.60;59.30;;;;;;5071893;28;1542;-68
2024/01/18 06:56:47;;;;;;;;;;;17.60;59.30;;;;;;5038586;28;1515;-67
2024/01/18 06:59:14;;;;;;;;;;;17.60;59.30;;;;;;5036284;28;1248;-68
2024/01/18 07:01:39;;;;;;;;;;;17.60;59.30;;;;;;5038481;28;1910;-67
2024/01/18 07:04:05;;;;;;;;;;;17.60;59.30;;;;;;5041019;28;1495;-68
2024/01/18 07:06:30;;;;;;;;;;;17.60;59.30;;;;;;5069912;28;1390;-68
2024/01/18 07:08:56;;;;;;;;;;;17.60;59.40;;;;;;5036275;28;1546;-67
2024/01/18 07:11:21;;;;;;;;;;;17.60;59.40;;;;;;5054669;28;1380;-68
2024/01/18 07:13:46;;;;;;;;;;;17.60;59.40;;;;;;5046612;28;1544;-67
2024/01/18 07:16:12;;;;;;;;;;;17.60;59.40;;;;;;5036889;28;1524;-67
2024/01/18 07:18:38;;;;;;;;;;;17.60;59.40;;;;;;5037978;28;1366;-69
2024/01/18 07:21:03;;;;;;;;;;;17.50;59.40;;;;;;5037431;28;1561;-68
2024/01/18 07:23:29;;;;;;;;;;;17.50;59.40;;;;;;5038442;28;1969;-67
2024/01/18 07:25:54;;;;;;;;;;;17.50;59.40;;;;;;5037293;28;1476;-69
2024/01/18 07:28:20;;;;;;;;;;;17.50;59.40;;;;;;5040161;28;1485;-67
2024/01/18 07:30:46;;;;;;;;;;;17.50;59.50;;;;;;5040018;28;1486;-67
2024/01/18 07:33:11;;;;;;;;;;;17.50;59.50;;;;;;5040779;28;1438;-68
2024/01/18 07:35:37;;;;;;;;;;;17.50;59.50;;;;;;5038428;28;1606;-68
2024/01/18 07:38:02;;;;;;;;;;;17.50;59.50;;;;;;5037671;28;1334;-68
2024/01/18 07:40:28;;;;;;;;;;;17.50;59.50;;;;;;5038915;28;1451;-66
2024/01/18 07:42:53;;;;;;;;;;;17.50;59.50;;;;;;5062890;28;1914;-67
2024/01/18 07:45:20;;;;;;;;;;;17.50;59.80;;;;;;5069671;28;1727;-67
2024/01/18 07:47:46;;;;;;;;;;;17.50;59.50;;;;;;5070529;28;1614;-69
2024/01/18 07:50:12;;;;;;;;;;;17.50;59.60;;;;;;5040171;28;1440;-67
2024/01/18 07:52:37;;;;;;;;;;;17.50;59.60;;;;;;5042202;28;1542;-68
2024/01/18 07:55:05;;;;;;;;;;;17.50;59.60;;;;;;5070110;28;1652;-68
2024/01/18 07:57:30;;;;;;;;;;;17.50;59.60;;;;;;5068676;28;1490;-67
2024/01/18 07:59:56;;;;;;;;;;;17.50;59.80;;;;;;5037406;28;1375;-66
2024/01/18 08:02:21;;;;;;;;;;;17.50;59.70;;;;;;5038559;28;1909;-67
2024/01/18 08:04:47;;;;;;;;;;;17.40;59.60;;;;;;5039148;28;1417;-67
2024/01/18 08:07:12;;;;;;;;;;;17.50;59.70;;;;;;5040781;28;1299;-68
2024/01/18 08:09:38;;;;;;;;;;;17.40;59.70;;;;;;5037402;28;1531;-68
2024/01/18 08:12:04;;;;;;;;;;;17.40;59.70;;;;;;5036605;28;1554;-66
2024/01/18 08:14:30;;;;;;;;;;;17.40;59.70;;;;;;5039432;28;1843;-66
2024/01/18 08:16:56;;;;;;;;;;;17.40;59.70;;;;;;5037941;28;1382;-66
2024/01/18 08:19:22;;;;;;;;;;;17.40;59.70;;;;;;5036885;28;1380;-65
2024/01/18 08:21:47;;;;;;;;;;;17.40;60.50;;;;;;5040538;28;1898;-66
2024/01/18 08:24:13;;;;;;;;;;;17.40;59.70;;;;;;5076474;28;1410;-69
2024/01/18 08:26:39;;;;;;;;;;;17.40;59.80;;;;;;5044119;28;1357;-66
2024/01/18 08:29:05;;;;;;;;;;;17.40;59.80;;;;;;5052000;28;1311;-66
2024/01/18 08:31:30;;;;;;;;;;;17.40;59.80;;;;;;5045797;28;1945;-65
2024/01/18 08:33:56;;;;;;;;;;;17.40;59.80;;;;;;5049053;28;1205;-65
2024/01/18 08:36:21;;;;;;;;;;;17.40;59.80;;;;;;5076585;28;1291;-68
2024/01/18 08:38:47;;;;;;;;;;;17.40;59.80;;;;;;5040699;28;878;-66
2024/01/18 08:41:12;;;;;;;;;;;17.40;59.80;;;;;;5043067;28;883;-68
2024/01/18 08:43:38;;;;;;;;;;;17.40;59.80;;;;;;5045958;28;1973;-66
2024/01/18 08:46:06;;;;;;;;;;;17.40;59.90;;;;;;5047538;28;1280;-69
2024/01/18 08:48:41;;;;;;;;;;;17.40;59.90;;;;;;5044249;28;916;-66
2024/01/18 08:51:13;;;;;;;;;;;17.40;59.90;;;;;;5075205;28;914;-65
2024/01/18 08:53:39;;;;;;;;;;;17.40;59.90;;;;;;5046797;28;1341;-65
2024/01/18 08:56:04;;;;;;;;;;;17.40;59.90;;;;;;5047176;28;1280;-68
2024/01/18 08:58:29;;;;;;;;;;;17.40;59.90;;;;;;5050725;28;931;-66
2024/01/18 09:00:55;;;;;;;;;;;17.40;59.90;;;;;;5045642;28;892;-66
2024/01/18 09:03:20;;;;;;;;;;;17.40;59.80;;;;;;5048310;28;1905;-67
2024/01/18 09:05:46;;;;;;;;;;;17.40;59.80;;;;;;5039782;28;1476;-67
2024/01/18 09:08:11;;;;;;;;;;;17.40;59.80;;;;;;5039353;28;1602;-68
2024/01/18 09:10:37;;;;;;;;;;;17.40;59.70;;;;;;5042113;28;1519;-66
2024/01/18 09:13:02;;;;;;;;;;;17.40;59.70;;;;;;5042911;28;1732;-67
2024/01/18 09:15:28;;;;;;;;;;;17.40;59.70;;;;;;5042103;28;1520;-66
2024/01/18 09:17:54;;;;;;;;;;;17.50;59.70;;;;;;5047133;28;1688;-65
2024/01/18 09:20:20;;;;;;;;;;;17.50;59.70;;;;;;5044913;28;1532;-65
2024/01/18 09:22:45;;;;;;;;;;;17.50;59.60;;;;;;5042222;28;1964;-67
2024/01/18 09:25:11;;;;;;;;;;;17.50;59.60;;;;;;5038462;28;1519;-68
2024/01/18 09:27:36;;;;;;;;;;;17.50;59.60;;;;;;5039770;28;1469;-67
2024/01/18 09:30:02;;;;;;;;;;;17.50;59.50;;;;;;5042251;28;1591;-68
2024/01/18 09:32:27;;;;;;;;;;;17.50;59.50;;;;;;5042723;28;1511;-68
2024/01/18 09:34:53;;;;;;;;;;;17.50;59.50;;;;;;5039704;28;1578;-66
2024/01/18 09:37:18;;;;;;;;;;;17.50;59.50;;;;;;5041304;28;1374;-67
2024/01/18 09:39:45;;;;;;;;;;;17.50;59.40;;;;;;5039840;28;1849;-67
2024/01/18 09:42:16;;;;;;;;;;;17.50;59.40;;;;;;5039013;28;1955;-69
2024/01/18 09:44:44;;;;;;;;;;;17.60;59.40;;;;;;5038478;28;1681;-68
2024/01/18 09:47:10;;;;;;;;;;;17.60;59.40;;;;;;5038752;28;1534;-69
2024/01/18 09:49:35;;;;;;;;;;;17.60;59.40;;;;;;5041476;28;1400;-67
2024/01/18 09:52:01;;;;;;;;;;;17.60;59.40;;;;;;5038371;28;1410;-68
2024/01/18 09:54:26;;;;;;;;;;;17.60;59.30;;;;;;5041300;28;1612;-68
2024/01/18 09:56:52;;;;;;;;;;;17.60;59.30;;;;;;5043102;28;1519;-66
2024/01/18 09:59:18;;;;;;;;;;;17.60;59.50;;;;;;5042289;28;1452;-66
2024/01/18 10:01:43;;;;;;;;;;;17.60;59.30;;;;;;5035933;28;1902;-66
2024/01/18 10:04:10;;;;;;;;;;;17.60;59.30;;;;;;5033414;28;4836;-66
2024/01/18 10:06:38;;;;;;;;;;;17.60;59.30;;;;;;5040522;28;1628;-70
2024/01/18 10:09:05;;;;;;;;;;;17.60;59.30;;;;;;5039966;28;1556;-68
2024/01/18 10:11:31;;;;;;;;;;;17.60;59.30;;;;;;5043194;28;1620;-65
2024/01/18 10:13:57;;;;;;;;;;;17.60;59.30;;;;;;5039373;28;1291;-68
2024/01/18 10:16:27;;;;;;;;;;;17.60;59.30;;;;;;5055565;28;1582;-68
2024/01/18 10:18:53;;;;;;;;;;;17.60;59.30;;;;;;5040386;28;1344;-67
2024/01/18 10:21:18;;;;;;;;;;;17.60;59.20;;;;;;5041465;28;1521;-69
2024/01/18 10:23:43;;;;;;;;;;;17.60;59.30;;;;;;5039287;28;1914;-66
2024/01/18 10:26:09;;;;;;;;;;;17.60;59.20;;;;;;5040406;28;1434;-68
2024/01/18 10:28:35;;;;;;;;;;;17.60;59.30;;;;;;5040102;28;1400;-68
2024/01/18 10:31:01;;;;;;;;;;;17.60;59.30;;;;;;5070202;28;905;-68
2024/01/18 10:33:28;;;;;;;;;;;17.60;59.30;;;;;;5041907;28;1018;-70
2024/01/18 10:35:54;;;;;;;;;;;17.60;59.30;;;;;;5041443;28;1660;-68
2024/01/18 10:38:19;;;;;;;;;;;17.60;59.30;;;;;;5040334;28;1355;-69
2024/01/18 10:40:48;;;;;;;;;;;17.60;59.30;;;;;;5038822;28;1418;-69
2024/01/18 10:43:14;;;;;;;;;;;17.60;59.30;;;;;;5040018;28;1898;-68
2024/01/18 10:45:39;;;;;;;;;;;17.60;59.30;;;;;;5045839;28;1626;-68
2024/01/18 10:48:05;;;;;;;;;;;17.60;59.30;;;;;;5040654;28;1638;-68
2024/01/18 10:50:30;;;;;;;;;;;17.60;59.30;;;;;;5040086;28;1440;-68
2024/01/18 10:52:55;;;;;;;;;;;17.60;59.30;;;;;;5040382;28;1378;-68
2024/01/18 10:55:21;;;;;;;;;;;17.60;59.30;;;;;;5038102;28;1611;-68
2024/01/18 10:57:46;;;;;;;;;;;17.60;59.30;;;;;;5038671;28;1387;-68
2024/01/18 11:00:15;;;;;;;;;;;17.60;59.20;;;;;;5041347;28;1517;-67
2024/01/18 11:02:42;;;;;;;;;;;17.60;59.20;;;;;;5038871;28;1883;-68
2024/01/18 11:05:09;;;;;;;;;;;17.60;59.20;;;;;;5037372;28;1540;-68
2024/01/18 11:07:35;;;;;;;;;;;17.60;59.20;;;;;;5038519;28;1651;-69
2024/01/18 11:10:01;;;;;;;;;;;17.60;59.40;;;;;;5064904;28;2220;-68
2024/01/18 11:12:28;;;;;;;;;;;17.70;59.20;;;;;;5044705;28;1703;-68
2024/01/18 11:14:53;;;;;;;;;;;17.70;59.20;;;;;;5070317;28;1433;-68
2024/01/18 11:17:19;;;;;;;;;;;17.70;59.20;;;;;;5039159;28;1130;-68
2024/01/18 11:19:45;;;;;;;;;;;17.70;59.10;;;;;;5069035;28;1487;-68
2024/01/18 11:22:10;;;;;;;;;;;17.70;59.10;;;;;;5035600;28;1906;-68
2024/01/18 11:24:37;;;;;;;;;;;17.70;59.10;;;;;;5037822;28;1402;-67
2024/01/18 11:27:15;;;;;;;;;;;17.70;59.10;;;;;;5068499;28;1491;-68
2024/01/18 11:29:41;;;;;;;;;;;17.70;59.10;;;;;;5038002;28;1592;-67
2024/01/18 11:32:06;;;;;;;;;;;17.70;59.10;;;;;;5037456;28;1126;-68
2024/01/18 11:34:36;;;;;;;;;;;17.70;59.10;;;;;;5037059;28;1411;-68
2024/01/18 11:37:07;;;;;;;;;;;17.70;59.10;;;;;;5056124;28;1339;-68
2024/01/18 11:39:48;;;;;;;;;;;17.70;59.10;;;;;;5039190;28;1351;-67
2024/01/18 11:42:24;;;;;;;;;;;17.70;59.10;;;;;;5040852;28;1956;-68
2024/01/18 11:44:50;;;;;;;;;;;17.70;59.40;;;;;;5052617;28;1426;-67
2024/01/18 11:47:17;;;;;;;;;;;17.70;59.10;;;;;;5037975;28;1675;-68
2024/01/18 11:49:42;;;;;;;;;;;17.70;59.10;;;;;;5045536;28;1562;-68
2024/01/18 11:52:07;;;;;;;;;;;17.70;59.10;;;;;;5037955;28;1933;-68
2024/01/18 11:54:34;;;;;;;;;;;17.70;59.10;;;;;;5040158;28;1338;-68
2024/01/18 11:57:00;;;;;;;;;;;17.70;59.10;;;;;;5043019;28;1359;-67
2024/01/18 11:59:26;;;;;;;;;;;17.70;59.10;;;;;;5042644;28;1953;-65
2024/01/18 12:01:53;;;;;;;;;;;17.70;59.10;;;;;;5042480;28;1979;-68
2024/01/18 12:04:19;;;;;;;;;;;17.70;59.10;;;;;;5044098;28;1592;-68
2024/01/18 12:06:44;;;;;;;;;;;17.70;59.10;;;;;;5041292;28;1242;-66
2024/01/18 12:09:10;;;;;;;;;;;17.70;59.10;;;;;;5048307;28;1455;-66
2024/01/18 12:11:35;;;;;;;;;;;17.70;59.10;;;;;;5038902;28;1296;-67
2024/01/18 12:14:01;;;;;;;;;;;17.70;59.10;;;;;;5040785;28;2073;-69
2024/01/18 12:16:26;;;;;;;;;;;17.70;59.10;;;;;;5074742;28;1596;-66
2024/01/18 12:18:52;;;;;;;;;;;17.70;59.10;;;;;;5041570;28;1307;-68
2024/01/18 12:21:18;;;;;;;;;;;17.70;59.10;;;;;;5042935;28;1553;-67
2024/01/18 12:23:44;;;;;;;;;;;17.70;59.10;;;;;;5045848;28;1906;-66
2024/01/18 12:26:09;;;;;;;;;;;17.70;59.10;;;;;;5046748;28;1716;-69
2024/01/18 12:28:35;;;;;;;;;;;17.70;59.10;;;;;;5049675;28;1216;-65
2024/01/18 12:31:01;;;;;;;;;;;17.70;59.10;;;;;;5073544;28;1498;-67
2024/01/18 12:33:35;;;;;;;;;;;17.70;59.10;;;;;;5042898;28;1504;-67
2024/01/18 12:36:01;;;;;;;;;;;17.70;59.10;;;;;;5043366;28;1514;-66
2024/01/18 12:38:27;;;;;;;;;;;17.60;59.10;;;;;;5077700;28;1005;-67
2024/01/18 12:40:52;;;;;;;;;;;17.70;59.20;;;;;;5049257;28;1133;-69
2024/01/18 12:43:18;;;;;;;;;;;17.70;59.20;;;;;;5049026;28;1959;-66
2024/01/18 12:45:48;;;;;;;;;;;17.60;59.20;;;;;;5051164;28;1260;-66
2024/01/18 12:48:14;;;;;;;;;;;17.60;59.20;;;;;;5043045;28;1093;-68
2024/01/18 12:50:39;;;;;;;;;;;17.70;59.20;;;;;;5072817;28;1658;-67
2024/01/18 12:53:06;;;;;;;;;;;17.60;59.20;;;;;;5072916;28;1370;-67
2024/01/18 12:55:31;;;;;;;;;;;17.60;59.20;;;;;;5040629;28;1513;-66
2024/01/18 12:57:58;;;;;;;;;;;17.60;59.20;;;;;;5075449;28;1373;-67
2024/01/18 13:00:23;;;;;;;;;;;17.60;59.20;;;;;;5042100;28;1437;-67
2024/01/18 13:02:52;;;;;;;;;;;17.60;59.20;;;;;;5040011;28;1961;-67
2024/01/18 13:05:17;;;;;;;;;;;17.60;59.20;;;;;;5040244;28;1329;-67
2024/01/18 13:07:43;;;;;;;;;;;17.60;59.20;;;;;;5042218;28;1349;-67
2024/01/18 13:10:10;;;;;;;;;;;17.60;59.20;;;;;;5049471;28;1400;-67
2024/01/18 13:12:36;;;;;;;;;;;17.60;59.20;;;;;;5038801;28;1364;-70
2024/01/18 13:15:01;;;;;;;;;;;17.60;59.20;;;;;;5070995;28;1598;-69
2024/01/18 13:17:27;;;;;;;;;;;17.60;59.20;;;;;;5043288;28;1744;-70
2024/01/18 13:19:53;;;;;;;;;;;17.60;59.20;;;;;;5042710;28;1359;-68
2024/01/18 13:22:18;;;;;;;;;;;17.60;59.20;;;;;;5043212;28;1910;-69
2024/01/18 13:24:44;;;;;;;;;;;17.60;59.20;;;;;;5040782;28;1312;-68
2024/01/18 13:27:10;;;;;;;;;;;17.60;59.20;;;;;;5039895;28;1321;-70
2024/01/18 13:29:35;;;;;;;;;;;17.60;59.20;;;;;;5036707;28;1410;-69
2024/01/18 13:32:01;;;;;;;;;;;17.60;59.20;;;;;;5039007;28;1221;-68
2024/01/18 13:34:27;;;;;;;;;;;17.60;59.20;;;;;;5042466;28;1524;-68
2024/01/18 13:36:52;;;;;;;;;;;17.60;59.20;;;;;;5035940;28;1566;-69
2024/01/18 13:39:17;;;;;;;;;;;17.60;59.20;;;;;;5073525;28;1247;-69
2024/01/18 13:41:43;;;;;;;;;;;17.60;59.20;;;;;;5039792;28;1959;-67
2024/01/18 13:44:08;;;;;;;;;;;17.60;59.20;;;;;;5040726;28;1455;-68
2024/01/18 13:46:37;;;;;;;;;;;17.60;59.20;;;;;;5039367;28;1265;-67
2024/01/18 13:49:02;;;;;;;;;;;17.60;59.20;;;;;;5069149;28;1364;-67
2024/01/18 13:51:30;;;;;;;;;;;17.60;59.30;;;;;;5037687;28;1911;-68
2024/01/18 13:53:55;;;;;;;;;;;17.60;59.20;;;;;;5037974;28;1975;-68
2024/01/18 13:56:22;;;;;;;;;;;17.60;59.20;;;;;;5041999;28;1392;-68
2024/01/18 13:58:47;;;;;;;;;;;17.60;59.20;;;;;;5041562;28;1958;-68
2024/01/18 14:01:13;;;;;;;;;;;17.60;59.20;;;;;;5039922;28;2098;-68
2024/01/18 14:03:41;;;;;;;;;;;17.70;59.30;;;;;;5041715;28;1965;-68
2024/01/18 14:06:07;;;;;;;;;;;17.60;59.20;;;;;;5043947;28;1343;-67
2024/01/18 14:08:32;;;;;;;;;;;17.60;59.20;;;;;;5040839;28;1379;-66
2024/01/18 14:10:58;;;;;;;;;;;17.60;59.20;;;;;;5037880;28;1896;-66
2024/01/18 14:13:24;;;;;;;;;;;17.60;59.20;;;;;;5037832;28;1951;-67
2024/01/18 14:15:50;;;;;;;;;;;17.60;59.20;;;;;;5040271;28;1378;-67
2024/01/18 14:18:16;;;;;;;;;;;17.60;59.20;;;;;;5040698;28;1509;-67
2024/01/18 14:20:42;;;;;;;;;;;17.70;59.20;;;;;;5038450;28;2177;-68
2024/01/18 14:23:07;;;;;;;;;;;17.60;59.20;;;;;;5038504;28;1974;-67